Time;durP1;ratioP1;P1;durP2;ratioP2;P2;SDS_P1;SDS_P2;PMS_P1;PMS_P2;Temp;Humidity;BMP_temperature;BMP_pressure;BME280_temperature;BME280_humidity;BME280_pressure;Samples;Min_cycle;Max_cycle;Signal;HPM_P1;HPM_P2
2023/03/07 00:02:10;;;;;;;9.57;2.42;;;;;;;;;;5041418;28;20036;-64
2023/03/07 00:04:36;;;;;;;19.02;3.35;;;;;;;;;;5028528;28;20045;-64
2023/03/07 00:07:02;;;;;;;7.90;2.72;;;;;;;;;;5025926;28;20068;-64
2023/03/07 00:09:29;;;;;;;13.77;4.07;;;;;;;;;;5048014;28;20044;-64
2023/03/07 00:11:55;;;;;;;7.50;3.28;;;;;;;;;;5047791;28;20033;-64
2023/03/07 00:14:21;;;;;;;8.15;3.42;;;;;;;;;;5046689;28;20037;-64
2023/03/07 00:16:50;;;;;;;8.73;2.88;;;;;;;;;;5045666;28;20033;-64
2023/03/07 00:19:17;;;;;;;10.93;2.92;;;;;;;;;;5038121;28;20049;-64
2023/03/07 00:21:43;;;;;;;17.30;4.50;;;;;;;;;;5025668;28;20120;-64
2023/03/07 00:24:10;;;;;;;15.38;4.13;;;;;;;;;;5028872;28;20049;-64
2023/03/07 00:26:38;;;;;;;11.73;3.28;;;;;;;;;;5009326;28;20348;-64
2023/03/07 00:29:06;;;;;;;11.63;3.17;;;;;;;;;;5029892;28;20531;-64
2023/03/07 00:31:32;;;;;;;10.63;3.25;;;;;;;;;;5021675;28;20446;-64
2023/03/07 00:33:58;;;;;;;10.93;2.83;;;;;;;;;;5026137;28;20444;-64
2023/03/07 00:36:25;;;;;;;6.30;2.78;;;;;;;;;;5012973;28;20033;-64
2023/03/07 00:38:51;;;;;;;12.60;4.00;;;;;;;;;;5008713;28;20052;-64
2023/03/07 00:41:19;;;;;;;11.07;3.35;;;;;;;;;;5019018;28;20044;-64
2023/03/07 00:43:45;;;;;;;19.48;4.45;;;;;;;;;;5017761;28;20045;-64
2023/03/07 00:46:12;;;;;;;9.27;2.72;;;;;;;;;;5029513;28;20040;-64
2023/03/07 00:48:39;;;;;;;11.35;3.25;;;;;;;;;;5028767;28;20419;-64
2023/03/07 00:51:07;;;;;;;12.45;3.40;;;;;;;;;;5026862;28;20045;-64
2023/03/07 00:53:34;;;;;;;14.15;3.05;;;;;;;;;;5005076;28;20049;-64
2023/03/07 00:56:01;;;;;;;18.00;2.90;;;;;;;;;;5019933;28;20059;-64
2023/03/07 00:58:28;;;;;;;8.23;2.70;;;;;;;;;;5019938;28;20500;-65
2023/03/07 01:00:55;;;;;;;9.57;2.65;;;;;;;;;;5026399;28;20482;-64
2023/03/07 01:03:21;;;;;;;10.40;2.40;;;;;;;;;;5008716;28;20415;-64
2023/03/07 01:05:47;;;;;;;12.02;2.60;;;;;;;;;;5033422;28;20083;-64
2023/03/07 01:08:15;;;;;;;12.73;2.70;;;;;;;;;;5006116;28;20046;-64
2023/03/07 01:10:41;;;;;;;5.65;2.60;;;;;;;;;;5022461;28;20704;-64
2023/03/07 01:13:08;;;;;;;9.30;2.22;;;;;;;;;;5032462;28;20068;-64
2023/03/07 01:15:35;;;;;;;15.75;3.35;;;;;;;;;;5039595;28;20586;-64
2023/03/07 01:18:02;;;;;;;14.88;3.65;;;;;;;;;;5043590;28;20057;-64
2023/03/07 01:20:30;;;;;;;8.32;2.65;;;;;;;;;;5037173;28;20043;-64
2023/03/07 01:22:56;;;;;;;11.13;3.97;;;;;;;;;;5050610;28;20049;-64
2023/03/07 01:25:22;;;;;;;13.48;2.90;;;;;;;;;;5033551;28;20483;-64
2023/03/07 01:27:48;;;;;;;8.30;2.75;;;;;;;;;;5050475;28;20048;-64
2023/03/07 01:30:14;;;;;;;7.22;2.70;;;;;;;;;;5044030;28;20041;-64
2023/03/07 01:32:41;;;;;;;9.05;2.72;;;;;;;;;;5051962;28;20072;-64
2023/03/07 01:35:07;;;;;;;8.50;2.58;;;;;;;;;;5059997;28;20044;-64
2023/03/07 01:37:33;;;;;;;14.63;3.42;;;;;;;;;;5047575;28;20041;-64
2023/03/07 01:39:59;;;;;;;9.00;2.45;;;;;;;;;;5022602;28;20376;-64
2023/03/07 01:42:29;;;;;;;8.00;2.30;;;;;;;;;;5045709;28;20045;-64
2023/03/07 01:45:07;;;;;;;10.73;2.63;;;;;;;;;;5031322;28;20049;-64
2023/03/07 01:47:34;;;;;;;4.60;1.58;;;;;;;;;;5041201;28;20043;-64
2023/03/07 01:50:02;;;;;;;9.23;2.72;;;;;;;;;;5059259;28;20064;-64
2023/03/07 01:52:37;;;;;;;6.25;2.38;;;;;;;;;;5053133;28;20406;-64
2023/03/07 01:55:11;;;;;;;8.77;2.33;;;;;;;;;;5054894;28;20044;-64
2023/03/07 01:57:39;;;;;;;6.68;2.72;;;;;;;;;;5032235;28;20088;-64
2023/03/07 02:00:08;;;;;;;9.05;2.10;;;;;;;;;;5046727;28;20118;-64
2023/03/07 02:02:40;;;;;;;5.03;2.50;;;5.80;99.90;;;;;;5038597;28;20037;-64
2023/03/07 02:05:11;;;;;;;9.20;2.75;;;4.00;99.90;;;;;;5047557;28;20025;-64
2023/03/07 02:07:43;;;;;;;8.45;2.47;;;;;;;;;;5051248;28;20486;-64
2023/03/07 02:10:10;;;;;;;5.13;2.30;;;;;;;;;;5047463;28;20058;-64
2023/03/07 02:12:37;;;;;;;13.10;3.38;;;;;;;;;;5034721;28;20051;-64
2023/03/07 02:15:04;;;;;;;10.68;2.47;;;;;;;;;;5011626;28;20367;-64
2023/03/07 02:17:30;;;;;;;10.73;2.95;;;;;;;;;;5047739;28;20055;-64
2023/03/07 02:20:12;;;;;;;10.93;2.28;;;;;;;;;;5057078;28;20099;-64
2023/03/07 02:22:39;;;;;;;18.30;3.10;;;;;;;;;;5049688;28;20029;-64
2023/03/07 02:25:09;;;;;;;5.00;1.92;;;;;;;;;;5030727;28;20072;-64
2023/03/07 02:27:36;;;;;;;5.60;2.72;;;;;;;;;;5057468;28;20120;-63
2023/03/07 02:30:03;;;;;;;12.05;3.15;;;;;;;;;;5049368;28;20406;-64
2023/03/07 02:32:29;;;;;;;11.18;2.70;;;;;;;;;;5046706;28;20051;-64
2023/03/07 02:34:55;;;;;;;9.40;2.80;;;;;;;;;;5043090;28;20086;-64
2023/03/07 02:37:24;;;;;;;9.00;2.38;;;;;;;;;;5050237;28;20063;-64
2023/03/07 02:39:50;;;;;;;9.25;2.03;;;4.00;99.90;;;;;;5055583;28;20061;-64
2023/03/07 02:42:28;;;;;;;9.55;2.80;;;3.90;99.90;;;;;;5050458;28;20116;-64
2023/03/07 02:44:59;;;;;;;7.90;1.77;;;3.90;99.90;;;;;;5034629;28;20554;-64
2023/03/07 02:47:25;;;;;;;7.50;1.83;;;3.80;99.90;;;;;;5046687;28;20040;-64
2023/03/07 02:49:52;;;;;;;6.78;2.00;;;3.80;99.90;;;;;;5043345;28;20514;-64
2023/03/07 02:52:18;;;;;;;9.68;2.25;;;3.80;99.90;;;;;;5022195;28;20135;-64
2023/03/07 02:54:44;;;;;;;8.73;2.35;;;3.80;99.90;;;;;;5044420;28;20045;-65
2023/03/07 02:57:12;;;;;;;10.40;3.00;;;3.70;99.90;;;;;;5022289;28;20046;-64
2023/03/07 02:59:39;;;;;;;18.10;2.33;;;3.70;99.90;;;;;;5028523;28;20071;-64
2023/03/07 03:02:04;;;;;;;9.43;2.58;;;3.70;99.90;;;;;;5042748;28;20182;-64
2023/03/07 03:04:34;;;;;;;6.60;2.55;;;;;;;;;;5029178;28;20394;-64
2023/03/07 03:07:00;;;;;;;7.35;2.28;;;;;;;;;;5046018;28;20108;-64
2023/03/07 03:09:26;;;;;;;6.57;2.50;;;;;;;;;;5047540;28;20049;-64
2023/03/07 03:11:52;;;;;;;7.50;1.80;;;;;;;;;;5044323;28;20111;-64
2023/03/07 03:14:19;;;;;;;7.43;2.25;;;;;;;;;;5054863;28;20053;-64
2023/03/07 03:16:45;;;;;;;5.15;2.42;;;;;;;;;;5023507;28;20045;-64
2023/03/07 03:19:11;;;;;;;10.02;2.40;;;;;;;;;;5051207;28;20613;-64
2023/03/07 03:21:37;;;;;;;7.50;2.22;;;;;;;;;;5048994;28;20037;-64
2023/03/07 03:24:07;;;;;;;9.75;2.38;;;;;;;;;;5050862;28;20135;-64
2023/03/07 03:26:37;;;;;;;8.60;2.08;;;;;;;;;;5013933;28;20037;-64
2023/03/07 03:29:04;;;;;;;11.98;2.00;;;;;;;;;;5038546;28;20478;-64
2023/03/07 03:31:30;;;;;;;10.82;2.45;;;;;;;;;;5012566;28;20451;-64
2023/03/07 03:33:57;;;;;;;13.15;2.53;;;;;;;;;;5019342;28;20080;-67
2023/03/07 03:36:27;;;;;;;6.40;1.92;;;;;;;;;;5047892;28;20105;-64
2023/03/07 03:38:54;;;;;;;9.10;2.08;;;;;;;;;;5045884;28;20037;-64
2023/03/07 03:41:20;;;;;;;7.97;2.33;;;;;;;;;;5047372;28;20063;-64
2023/03/07 03:43:47;;;;;;;7.57;2.13;;;;;;;;;;5055472;28;20386;-64
2023/03/07 03:46:13;;;;;;;7.88;2.28;;;;;;;;;;5031433;28;20033;-64
2023/03/07 03:48:39;;;;;;;6.20;2.88;;;;;;;;;;5045188;28;20041;-64
2023/03/07 03:51:07;;;;;;;9.45;2.10;;;;;;;;;;5047771;28;20419;-64
2023/03/07 03:53:34;;;;;;;3.60;2.50;;;;;;;;;;5036849;28;20049;-63
2023/03/07 03:56:00;;;;;;;8.88;2.17;;;;;;;;;;5027246;28;20550;-64
2023/03/07 03:58:27;;;;;;;7.22;1.98;;;;;;;;;;5044386;28;20083;-64
2023/03/07 04:00:53;;;;;;;10.90;2.88;;;;;;;;;;5042282;28;20514;-63
2023/03/07 04:03:19;;;;;;;6.85;2.10;;;;;;;;;;5025210;28;20039;-64
2023/03/07 04:05:45;;;;;;;4.65;1.92;;;;;;;;;;5048130;28;20067;-64
2023/03/07 04:08:11;;;;;;;7.95;2.13;;;;;;;;;;5047984;28;20033;-64
2023/03/07 04:10:37;;;;;;;10.48;2.95;;;;;;;;;;5044368;28;20032;-63
2023/03/07 04:13:03;;;;;;;6.93;2.30;;;;;;;;;;5054291;28;20037;-64
2023/03/07 04:15:29;;;;;;;9.02;2.45;;;;;;;;;;5042890;28;20044;-64
2023/03/07 04:17:56;;;;;;;4.25;1.83;;;;;;;;;;5045335;28;20056;-64
2023/03/07 04:20:22;;;;;;;11.30;1.92;;;;;;;;;;5025841;28;20127;-64
2023/03/07 04:22:49;;;;;;;6.07;1.83;;;;;;;;;;5043582;28;20033;-64
2023/03/07 04:25:15;;;;;;;11.40;2.10;;;;;;;;;;5040665;28;20056;-64
2023/03/07 04:27:41;;;;;;;7.90;2.75;;;;;;;;;;5032634;28;20237;-64
2023/03/07 04:30:07;;;;;;;13.05;2.40;;;;;;;;;;5045286;28;20041;-64
2023/03/07 04:32:34;;;;;;;12.85;2.65;;;;;;;;;;5046567;28;20574;-64
2023/03/07 04:35:00;;;;;;;10.98;2.40;;;;;;;;;;5047103;28;20359;-64
2023/03/07 04:37:26;;;;;;;4.57;2.05;;;;;;;;;;5049002;28;20058;-64
2023/03/07 04:39:52;;;;;;;4.72;1.83;;;;;;;;;;5046502;28;20041;-65
2023/03/07 04:42:18;;;;;;;8.13;2.25;;;;;;;;;;5046827;28;20049;-64
2023/03/07 04:44:44;;;;;;;4.13;2.05;;;;;;;;;;5049952;28;20075;-64
2023/03/07 04:47:10;;;;;;;6.88;2.22;;;;;;;;;;5049226;28;20491;-64
2023/03/07 04:49:36;;;;;;;5.28;1.73;;;;;;;;;;5047883;28;20036;-64
2023/03/07 04:52:03;;;;;;;2.97;1.38;;;;;;;;;;5054059;28;20082;-64
2023/03/07 04:54:29;;;;;;;4.93;1.98;;;;;;;;;;5056861;28;20164;-64
2023/03/07 04:56:56;;;;;;;5.70;2.17;;;;;;;;;;5031712;28;20041;-64
2023/03/07 04:59:22;;;;;;;7.55;2.28;;;;;;;;;;5054075;28;20074;-64
2023/03/07 05:01:48;;;;;;;5.70;2.75;;;;;;;;;;5050868;28;20415;-64
2023/03/07 05:04:14;;;;;;;10.45;3.03;;;;;;;;;;5029480;28;20509;-64
2023/03/07 05:06:40;;;;;;;9.80;3.20;;;;;;;;;;5053951;28;20268;-63
2023/03/07 05:09:07;;;;;;;4.53;1.98;;;;;;;;;;5048898;28;20065;-64
2023/03/07 05:11:33;;;;;;;6.07;1.75;;;;;;;;;;5048838;28;20382;-64
2023/03/07 05:13:59;;;;;;;5.72;2.13;;;;;;;;;;5053498;28;20049;-63
2023/03/07 05:16:25;;;;;;;8.40;2.08;;;;;;;;;;5038877;28;20238;-64
2023/03/07 05:18:51;;;;;;;6.65;1.75;;;;;;;;;;5053508;28;20049;-63
2023/03/07 05:21:17;;;;;;;8.20;1.80;;;;;;;;;;5041572;28;20040;-64
2023/03/07 05:23:43;;;;;;;7.25;1.83;;;;;;;;;;5050367;28;20463;-63
2023/03/07 05:26:09;;;;;;;6.05;1.45;;;;;;;;;;5048926;28;20120;-64
2023/03/07 05:28:35;;;;;;;5.20;1.80;;;;;;;;;;5030539;28;20119;-64
2023/03/07 05:31:02;;;;;;;4.75;1.48;;;;;;;;;;5013126;28;20041;-63
2023/03/07 05:33:28;;;;;;;5.88;1.48;;;;;;;;;;5053870;28;20128;-63
2023/03/07 05:35:54;;;;;;;4.75;1.60;;;;;;;;;;5051317;28;20136;-64
2023/03/07 05:38:20;;;;;;;4.53;1.33;;;;;;;;;;5049048;28;20091;-64
2023/03/07 05:40:46;;;;;;;5.75;2.10;;;3.70;99.90;;;;;;5047116;28;20219;-64
2023/03/07 05:43:12;;;;;;;6.35;1.50;;;;;;;;;;5026379;28;20042;-65
2023/03/07 05:45:38;;;;;;;7.55;1.85;;;;;;;;;;5012985;28;20045;-64
2023/03/07 05:48:04;;;;;;;5.10;1.40;;;;;;;;;;5048286;28;20120;-63
2023/03/07 05:50:31;;;;;;;6.30;2.25;;;;;;;;;;5049443;28;20145;-64
2023/03/07 05:52:57;;;;;;;7.05;1.98;;;;;;;;;;5024640;28;20498;-64
2023/03/07 05:55:23;;;;;;;7.30;2.42;;;;;;;;;;5041401;28;20048;-64
2023/03/07 05:57:49;;;;;;;7.53;1.90;;;;;;;;;;5026224;28;20399;-64
2023/03/07 06:00:16;;;;;;;7.43;2.30;;;;;;;;;;5045908;28;20036;-64
2023/03/07 06:02:42;;;;;;;8.10;1.63;;;;;;;;;;5033112;28;20037;-64
2023/03/07 06:05:08;;;;;;;10.88;1.85;;;;;;;;;;5015031;28;20036;-64
2023/03/07 06:07:34;;;;;;;4.18;2.40;;;;;;;;;;5044448;28;20485;-64
2023/03/07 06:10:00;;;;;;;6.97;1.65;;;;;;;;;;5052669;28;20036;-64
2023/03/07 06:12:27;;;;;;;10.82;2.05;;;;;;;;;;5053073;28;20052;-64
2023/03/07 06:14:53;;;;;;;1.92;1.00;;;;;;;;;;5043077;28;20072;-64
2023/03/07 06:17:19;;;;;;;1.85;0.88;;;;;;;;;;5048022;28;20082;-64
2023/03/07 06:19:45;;;;;;;6.03;1.55;;;;;;;;;;5050400;28;20140;-64
2023/03/07 06:22:11;;;;;;;2.78;1.02;;;;;;;;;;5033116;28;20447;-64
2023/03/07 06:24:37;;;;;;;3.05;1.60;;;;;;;;;;5049518;28;20564;-64
2023/03/07 06:27:04;;;;;;;2.22;1.23;;;;;;;;;;5046100;28;20037;-64
2023/03/07 06:29:33;;;;;;;3.05;0.80;;;;;;;;;;5048771;28;20116;-64
2023/03/07 06:31:59;;;;;;;3.20;0.73;;;3.50;99.90;;;;;;5047499;28;20052;-64
2023/03/07 06:34:25;;;;;;;2.20;1.02;;;;;;;;;;5049846;28;20082;-64
2023/03/07 06:36:51;;;;;;;3.88;1.08;;;;;;;;;;5050307;28;20720;-64
2023/03/07 06:39:19;;;;;;;4.38;1.02;;;;;;;;;;5029187;28;20037;-64
2023/03/07 06:41:49;;;;;;;3.22;0.95;;;;;;;;;;5029579;28;20076;-64
2023/03/07 06:44:16;;;;;;;4.80;1.05;;;;;;;;;;5044647;28;20029;-64
2023/03/07 06:46:43;;;;;;;8.18;1.10;;;;;;;;;;5043849;28;20194;-64
2023/03/07 06:49:09;;;;;;;5.40;2.25;;;;;;;;;;5027517;28;20025;-64
2023/03/07 06:51:35;;;;;;;2.42;1.15;;;;;;;;;;5036783;28;20101;-64
2023/03/07 06:54:01;;;;;;;9.75;1.30;;;;;;;;;;5027020;28;20089;-64
2023/03/07 06:56:29;;;;;;;5.80;1.45;;;;;;;;;;5031048;28;20041;-64
2023/03/07 06:58:55;;;;;;;5.68;1.40;;;;;;;;;;5047115;28;20072;-64
2023/03/07 07:01:22;;;;;;;3.85;1.20;;;;;;;;;;5009049;28;20040;-64
2023/03/07 07:03:48;;;;;;;5.75;1.67;;;;;;;;;;5044526;28;20040;-64
2023/03/07 07:06:15;;;;;;;5.72;1.52;;;;;;;;;;5051062;28;20487;-64
2023/03/07 07:08:41;;;;;;;6.93;1.33;;;;;;;;;;5049351;28;20040;-64
2023/03/07 07:11:07;;;;;;;4.43;1.25;;;;;;;;;;5047104;28;20045;-64
2023/03/07 07:13:33;;;;;;;7.80;1.50;;;;;;;;;;5049341;28;20116;-64
2023/03/07 07:16:04;;;;;;;3.08;1.90;;;;;;;;;;5048363;28;20045;-63
2023/03/07 07:18:31;;;;;;;8.60;1.55;;;;;;;;;;5047931;28;20486;-64
2023/03/07 07:20:57;;;;;;;5.97;2.50;;;;;;;;;;5042143;28;20036;-64
2023/03/07 07:23:25;;;;;;;9.23;1.98;;;;;;;;;;5043897;28;20160;-64
2023/03/07 07:25:51;;;;;;;10.30;1.70;;;;;;;;;;5039488;28;20044;-64
2023/03/07 07:28:17;;;;;;;2.00;0.95;;;;;;;;;;5045666;28;20118;-64
2023/03/07 07:30:43;;;;;;;2.28;0.98;;;;;;;;;;5037101;28;20049;-65
2023/03/07 07:33:09;;;;;;;5.45;2.03;;;;;;;;;;5040584;28;20032;-63
2023/03/07 07:35:38;;;;;;;2.15;0.85;;;;;;;;;;5040446;28;20875;-64
2023/03/07 07:38:04;;;;;;;1.45;0.80;;;;;;;;;;5043716;28;20068;-63
2023/03/07 07:40:30;;;;;;;3.05;1.00;;;;;;;;;;5054564;28;20406;-63
2023/03/07 07:42:56;;;;;;;5.38;1.83;;;;;;;;;;5048166;28;20036;-63
2023/03/07 07:45:23;;;;;;;3.33;0.95;;;;;;;;;;5049232;28;20070;-64
2023/03/07 07:47:50;;;;;;;5.93;1.40;;;;;;;;;;5029730;28;20059;-63
2023/03/07 07:50:20;;;;;;;3.08;1.30;;;;;;;;;;5045664;28;20541;-63
2023/03/07 07:52:46;;;;;;;6.88;1.60;;;;;;;;;;5045300;28;20116;-63
2023/03/07 07:55:13;;;;;;;3.95;1.00;;;;;;;;;;5044634;28;20033;-63
2023/03/07 07:57:40;;;;;;;5.30;1.30;;;;;;;;;;5029935;28;20044;-63
2023/03/07 08:00:07;;;;;;;4.38;1.58;;;;;;;;;;5031971;28;20047;-64
2023/03/07 08:02:34;;;;;;;8.20;2.55;;;;;;;;;;5031159;28;20111;-63
2023/03/07 08:05:01;;;;;;;2.75;1.23;;;;;;;;;;5039856;28;20508;-63
2023/03/07 08:07:27;;;;;;;4.22;1.23;;;;;;;;;;5030095;28;20045;-63
2023/03/07 08:09:53;;;;;;;6.00;1.80;;;;;;;;;;5045548;28;20262;-63
2023/03/07 08:12:19;;;;;;;6.55;1.55;;;;;;;;;;5049225;28;20033;-63
2023/03/07 08:14:45;;;;;;;7.13;1.20;;;;;;;;;;5029516;28;20279;-63
2023/03/07 08:17:12;;;;;;;8.40;1.60;;;;;;;;;;5042686;28;20534;-64
2023/03/07 08:19:38;;;;;;;2.63;1.35;;;;;;;;;;5027824;28;20076;-64
2023/03/07 08:22:04;;;;;;;8.23;1.90;;;;;;;;;;5047869;28;20033;-64
2023/03/07 08:24:33;;;;;;;3.92;1.50;;;;;;;;;;5033306;28;20059;-63
2023/03/07 08:26:59;;;;;;;9.05;2.03;;;;;;;;;;5046532;28;20588;-63
2023/03/07 08:29:26;;;;;;;2.70;1.58;;;;;;;;;;5047570;28;20029;-63
2023/03/07 08:31:53;;;;;;;2.22;1.20;;;;;;;;;;5045947;28;20599;-63
2023/03/07 08:34:19;;;;;;;2.05;0.80;;;;;;;;;;5031275;28;20119;-63
2023/03/07 08:36:45;;;;;;;6.82;1.20;;;;;;;;;;5044577;28;20433;-64
2023/03/07 08:39:12;;;;;;;3.75;1.27;;;;;;;;;;5049526;28;20047;-64
2023/03/07 08:41:38;;;;;;;5.07;2.10;;;;;;;;;;5046680;28;20051;-64
2023/03/07 08:44:04;;;;;;;4.45;1.52;;;;;;;;;;5011095;28;20048;-64
2023/03/07 08:46:30;;;;;;;1.67;0.98;;;;;;;;;;5047499;28;20080;-64
2023/03/07 08:48:56;;;;;;;4.93;1.10;;;;;;;;;;5026452;28;20387;-64
2023/03/07 08:51:23;;;;;;;2.58;1.30;;;;;;;;;;5049852;28;20041;-64
2023/03/07 08:53:49;;;;;;;4.03;1.73;;;;;;;;;;5046659;28;20045;-64
2023/03/07 08:56:16;;;;;;;3.42;1.33;;;;;;;;;;5045340;28;20423;-64
2023/03/07 08:58:43;;;;;;;8.73;1.58;;;;;;;;;;5048336;28;20499;-64
2023/03/07 09:01:09;;;;;;;5.25;1.70;;;;;;;;;;5050603;28;20087;-64
2023/03/07 09:03:35;;;;;;;3.20;1.40;;;;;;;;;;5044994;28;20076;-64
2023/03/07 09:06:02;;;;;;;5.10;1.20;;;;;;;;;;5048430;28;20075;-64
2023/03/07 09:08:28;;;;;;;4.72;1.67;;;;;;;;;;5046854;28;20062;-64
2023/03/07 09:10:55;;;;;;;4.82;1.38;;;;;;;;;;5044444;28;20483;-64
2023/03/07 09:13:21;;;;;;;3.10;1.35;;;;;;;;;;5049830;28;20044;-64
2023/03/07 09:15:47;;;;;;;4.90;1.20;;;;;;;;;;5033701;28;20274;-64
2023/03/07 09:18:14;;;;;;;8.57;1.92;;;;;;;;;;5044118;28;20789;-64
2023/03/07 09:20:40;;;;;;;6.78;1.55;;;;;;;;;;5038673;28;20557;-64
2023/03/07 09:23:07;;;;;;;4.22;1.48;;;;;;;;;;5046132;28;20048;-64
2023/03/07 09:25:33;;;;;;;6.80;2.17;;;;;;;;;;5049578;28;20040;-64
2023/03/07 09:27:59;;;;;;;10.63;1.75;;;;;;;;;;5040832;28;20040;-64
2023/03/07 09:30:27;;;;;;;7.13;2.33;;;;;;;;;;5046593;28;20049;-64
2023/03/07 09:32:53;;;;;;;6.22;1.30;;;;;;;;;;5025229;28;20449;-64
2023/03/07 09:35:20;;;;;;;3.50;1.50;;;;;;;;;;5050101;28;20636;-64
2023/03/07 09:37:46;;;;;;;8.50;1.50;;;;;;;;;;5048870;28;20041;-64
2023/03/07 09:40:22;;;;;;;6.70;1.60;;;;;;;;;;5054597;28;20067;-64
2023/03/07 09:43:03;;;;;;;7.32;2.25;;;;;;;;;;5033411;28;20394;-64
2023/03/07 09:45:48;;;;;;;9.60;1.77;;;;;;;;;;5042121;28;20470;-64
2023/03/07 09:48:32;;;;;;;7.68;2.55;;;;;;;;;;5049276;28;20490;-64
2023/03/07 09:51:08;;;;;;;6.63;2.40;;;;;;;;;;5049219;28;20130;-64
2023/03/07 09:53:37;;;;;;;7.88;2.08;;;;;;;;;;5042887;28;20110;-64
2023/03/07 09:56:05;;;;;;;5.55;1.83;;;;;;;;;;5051165;28;20033;-64
2023/03/07 09:58:32;;;;;;;9.25;2.97;;;;;;;;;;5029479;28;20049;-64
2023/03/07 10:01:00;;;;;;;9.40;2.13;;;;;;;;;;5050316;28;20048;-64
2023/03/07 10:03:32;;;;;;;7.90;2.10;;;;;;;;;;5044322;28;20049;-64
2023/03/07 10:06:08;;;;;;;5.10;1.83;;;;;;;;;;5044796;28;20040;-64
2023/03/07 10:08:34;;;;;;;6.20;2.80;;;;;;;;;;5055152;28;20218;-64
2023/03/07 10:11:03;;;;;;;7.90;2.08;;;;;;;;;;5042027;28;20192;-64
2023/03/07 10:13:44;;;;;;;5.28;1.92;;;;;;;;;;5055296;28;20241;-64
2023/03/07 10:16:29;;;;;;;4.78;1.92;;;;;;;;;;5045497;28;20033;-64
2023/03/07 10:19:04;;;;;;;25.70;2.15;;;;;;;;;;5054062;28;20079;-64
2023/03/07 10:21:47;;;;;;;6.80;1.50;;;;;;;;;;5047970;28;20791;-64
2023/03/07 10:24:13;;;;;;;;;;;;;;;;;;5056323;28;20147;-64
2023/03/07 10:26:46;;;;;;;14.35;1.95;;;;;;;;;;5049370;28;19923;-64
2023/03/07 10:29:18;;;;;;;7.70;1.52;;;;;;;;;;5040696;28;20494;-64
2023/03/07 10:31:48;;;;;;;5.97;1.92;;;;;;;;;;5047823;28;20238;-64
2023/03/07 10:34:21;;;;;;;10.55;2.55;;;;;;;;;;5053315;28;20033;-64
2023/03/07 10:36:48;;;;;;;4.45;1.40;;;;;;;;;;5049171;28;20037;-64
2023/03/07 10:39:33;;;;;;;6.18;1.63;;;;;;;;;;5051854;28;20540;-64
2023/03/07 10:41:59;;;;;;;3.55;1.70;;;;;;;;;;5035489;28;21223;-64
2023/03/07 10:44:27;;;;;;;7.15;1.73;;;;;;;;;;5034368;28;20393;-64
2023/03/07 10:46:58;;;;;;;3.92;1.95;;;;;;;;;;5052456;28;20031;-64
2023/03/07 10:49:37;;;;;;;11.38;1.60;;;;;;;;;;5055874;28;20041;-64
2023/03/07 10:52:12;;;;;;;2.70;1.13;;;;;;;;;;5047640;28;20045;-64
2023/03/07 10:54:38;;;;;;;8.18;1.50;;;;;;;;;;5056391;28;20680;-64
2023/03/07 10:57:06;;;;;;;5.05;1.50;;;;;;;;;;5052213;28;20044;-64
2023/03/07 10:59:33;;;;;;;8.35;2.40;;;;;;;;;;5048647;28;20025;-64
2023/03/07 11:02:00;;;;;;;7.78;2.45;;;;;;;;;;5026481;28;20053;-64
2023/03/07 11:04:28;;;;;;;4.13;1.42;;;;;;;;;;5044718;28;20044;-64
2023/03/07 11:06:56;;;;;;;4.88;1.90;;;;;;;;;;5035994;28;20041;-64
2023/03/07 11:09:29;;;;;;;5.32;1.70;;;;;;;;;;5048165;28;20482;-64
2023/03/07 11:12:00;;;;;;;13.82;1.98;;;;;;;;;;5021439;28;20045;-64
2023/03/07 11:14:27;;;;;;;9.15;2.67;;;;;;;;;;5047591;28;20052;-64
2023/03/07 11:16:55;;;;;;;7.43;2.35;;;;;;;;;;5038095;28;20080;-64
2023/03/07 11:19:31;;;;;;;11.05;2.67;;;;;;;;;;5030695;28;20084;-65
2023/03/07 11:21:58;;;;;;;4.38;2.10;;;;;;;;;;5052539;28;20029;-64
2023/03/07 11:24:25;;;;;;;10.23;2.30;;;;;;;;;;5048448;28;20470;-64
2023/03/07 11:26:56;;;;;;;8.93;2.20;;;;;;;;;;5043783;28;20048;-64
2023/03/07 11:29:23;;;;;;;19.50;1.95;;;;;;;;;;5045346;28;20033;-64
2023/03/07 11:32:16;;;;;;;8.23;2.05;;;;;;;;;;5053711;28;20119;-63
2023/03/07 11:34:42;;;;;;;7.15;1.77;;;;;;;;;;5024714;28;20053;-64
2023/03/07 11:37:08;;;;;;;4.55;1.48;;;;;;;;;;5046162;28;20068;-64
2023/03/07 11:39:40;;;;;;;10.30;1.98;;;;;;;;;;5035436;28;20049;-64
2023/03/07 11:42:17;;;;;;;4.22;1.55;;;;;;;;;;5049565;28;20035;-64
2023/03/07 11:44:43;;;;;;;8.00;1.75;;;;;;;;;;5014057;28;20037;-64
2023/03/07 11:47:28;;;;;;;4.03;1.50;;;;;;;;;;5043048;28;20029;-64
2023/03/07 11:50:03;;;;;;;4.85;1.67;;;;;;;;;;5044426;28;20065;-64
2023/03/07 11:52:39;;;;;;;5.78;1.60;;;;;;;;;;5041214;28;20363;-64
2023/03/07 11:55:24;;;;;;;7.65;1.58;;;;;;;;;;5021465;28;20045;-64
2023/03/07 11:57:50;;;;;;;4.38;1.63;;;;;;;;;;5042475;28;20140;-64
2023/03/07 12:00:34;;;;;;;5.00;1.60;;;;;;;;;;5040540;28;20180;-64
2023/03/07 12:03:03;;;;;;;5.88;1.50;;;;;;;;;;5037583;28;20039;-64
2023/03/07 12:05:30;;;;;;;4.63;1.50;;;;;;;;;;5042127;28;20068;-64
2023/03/07 12:08:06;;;;;;;8.52;1.55;;;;;;;;;;5041798;28;20455;-64
2023/03/07 12:10:38;;;;;;;7.05;1.38;;;;;;;;;;5044439;28;20089;-64
2023/03/07 12:13:11;;;;;;;6.60;1.53;;;;;;;;;;5048459;28;20033;-64
2023/03/07 12:15:37;;;;;;;;;;;;;;;;;;5042675;28;20076;-64
2023/03/07 12:18:22;;;;;;;6.13;1.63;;;;;;;;;;5047527;28;19936;-64
2023/03/07 12:21:03;;;;;;;4.63;1.40;;;;;;;;;;5051024;28;20529;-64
2023/03/07 12:23:42;;;;;;;4.20;1.50;;;;;;;;;;5041449;28;20174;-64
2023/03/07 12:26:21;;;;;;;9.00;1.75;;;;;;;;;;5043754;28;20064;-64
2023/03/07 12:28:53;;;;;;;4.63;1.42;;;;;;;;;;5028340;28;20502;-64
2023/03/07 12:31:27;;;;;;;3.75;1.55;;;;;;;;;;5043272;28;20412;-64
2023/03/07 12:33:53;;;;;;;2.13;1.08;;;;;;;;;;5031995;28;20120;-64
2023/03/07 12:36:26;;;;;;;6.43;1.52;;;;;;;;;;5042037;28;20127;-64
2023/03/07 12:38:59;;;;;;;2.47;1.45;;;;;;;;;;5020840;28;20071;-65
2023/03/07 12:41:39;;;;;;;7.82;2.55;;;;;;;;;;5041068;28;20375;-64
2023/03/07 12:44:10;;;;;;;3.25;1.33;;;;;;;;;;5035214;28;20577;-64
2023/03/07 12:46:52;;;;;;;8.20;2.10;;;;;;;;;;5033942;28;20056;-64
2023/03/07 12:49:26;;;;;;;7.70;1.83;;;;;;;;;;5031110;28;20041;-64
2023/03/07 12:51:55;;;;;;;3.97;1.70;;;;;;;;;;5036650;28;20040;-64
2023/03/07 12:54:25;;;;;;;3.05;1.70;;;;;;;;;;5040126;28;20091;-64
2023/03/07 12:56:54;;;;;;;4.95;1.42;;;;;;;;;;4998450;28;20411;-64
2023/03/07 12:59:21;;;;;;;2.50;1.42;;;;;;;;;;5046232;28;20043;-64
2023/03/07 13:01:59;;;;;;;4.05;1.70;;;;;;;;;;5004930;28;20037;-64
2023/03/07 13:04:38;;;;;;;10.02;2.22;;;;;;;;;;5023820;28;20071;-64
2023/03/07 13:07:07;;;;;;;6.60;1.25;;;;;;;;;;5047309;28;20036;-65
2023/03/07 13:09:34;;;;;;;5.30;1.65;;;;;;;;;;5025015;28;20049;-65
2023/03/07 13:12:18;;;;;;;6.45;1.60;;;;;;;;;;5029287;28;20048;-65
2023/03/07 13:14:55;;;;;;;2.80;1.50;;;;;;;;;;5044336;28;20477;-65
2023/03/07 13:17:33;;;;;;;6.28;1.10;;;;;;;;;;5035418;28;20088;-64
2023/03/07 13:20:03;;;;;;;1.95;0.70;;;;;;;;;;5044244;28;20146;-64
2023/03/07 13:22:29;;;;;;;3.45;1.02;;;;;;;;;;5022669;28;20148;-64
2023/03/07 13:25:19;;;;;;;2.72;1.20;;;;;;;;;;5045611;28;20345;-64
2023/03/07 13:27:45;;;;;;;5.05;1.40;;;;;;;;;;5033482;28;20076;-64
2023/03/07 13:30:15;;;;;;;5.38;1.00;;;;;;;;;;5027040;28;20052;-64
2023/03/07 13:32:50;;;;;;;2.60;1.10;;;;;;;;;;5027121;28;20057;-64
2023/03/07 13:35:38;;;;;;;2.38;1.30;;;;;;;;;;5047422;28;20044;-64
2023/03/07 13:38:13;;;;;;;5.95;1.40;;;;;;;;;;5004944;28;20048;-64
2023/03/07 13:40:46;;;;;;;3.20;0.80;;;;;;;;;;5045301;28;20376;-64
2023/03/07 13:43:24;;;;;;;1.48;0.77;;;;;;;;;;5048836;28;20036;-64
2023/03/07 13:45:51;;;;;;;1.75;0.90;;;;;;;;;;5042444;28;20048;-64
2023/03/07 13:48:27;;;;;;;2.83;0.70;;;;;;;;;;5048537;28;20150;-64
2023/03/07 13:50:53;;;;;;;3.80;1.10;;;;;;;;;;5036359;28;20049;-64
2023/03/07 13:53:29;;;;;;;3.67;0.98;;;;;;;;;;5044842;28;20040;-64
2023/03/07 13:56:14;;;;;;;3.25;1.05;;;;;;;;;;5055423;28;20113;-64
2023/03/07 13:58:46;;;;;;;2.45;0.82;;;;;;;;;;5042891;28;20044;-65
2023/03/07 14:01:13;;;;;;;3.42;0.80;;;;;;;;;;5026671;28;20045;-64
2023/03/07 14:03:44;;;;;;;5.03;1.00;;;;;;;;;;5021226;28;20886;-64
2023/03/07 14:06:13;;;;;;;2.40;0.80;;;;;;;;;;5028312;28;20366;-64
2023/03/07 14:08:39;;;;;;;1.55;0.82;;;;;;;;;;5049149;28;20049;-64
2023/03/07 14:11:06;;;;;;;3.55;0.95;;;;;;;;;;5042853;28;20482;-64
2023/03/07 14:13:55;;;;;;;8.63;1.00;;;;;;;;;;5026292;28;20064;-65
2023/03/07 14:16:33;;;;;;;4.80;1.30;;;;;;;;;;5041520;28;20376;-64
2023/03/07 14:19:14;;;;;;;3.53;1.08;;;;;;;;;;5034965;28;20164;-64
2023/03/07 14:21:53;;;;;;;4.90;1.85;;;;;;;;;;5011807;28;20049;-64
2023/03/07 14:24:50;;;;;;;9.00;1.40;;;3.20;99.90;;;;;;5041132;28;20128;-64
2023/03/07 14:27:16;;;;;;;10.95;2.10;;;5.30;99.90;;;;;;5041325;28;20479;-65
2023/03/07 14:29:55;;;;;;;6.97;1.27;;;5.30;99.90;;;;;;5043919;28;20044;-64
2023/03/07 14:32:27;;;;;;;3.13;1.30;;;5.30;99.90;;;;;;5049080;28;20044;-64
2023/03/07 14:34:53;;;;;;;3.73;1.40;;;5.20;99.90;;;;;;5043678;28;20036;-64
2023/03/07 14:37:27;;;;;;;3.58;1.27;;;5.30;99.90;;;;;;5043762;28;20044;-65
2023/03/07 14:40:14;;;;;;;3.55;1.58;;;5.20;99.90;;;;;;5012797;28;20040;-64
2023/03/07 14:42:53;;;;;;;2.97;0.95;;;5.20;99.90;;;;;;5035670;28;20040;-64
2023/03/07 14:45:29;;;;;;;1.95;0.98;;;5.20;99.90;;;;;;5030507;28;20033;-65